sensor_id;sensor_type;location;lat;lon;timestamp;temperature;humidity
16736;DHT22;17990;49.548;9.730;2023-07-31T00:00:38;17.00;99.90
16736;DHT22;17990;49.548;9.730;2023-07-31T00:03:05;17.00;99.90
16736;DHT22;17990;49.548;9.730;2023-07-31T00:05:32;17.00;99.90
16736;DHT22;17990;49.548;9.730;2023-07-31T00:07:58;17.00;99.90
16736;DHT22;17990;49.548;9.730;2023-07-31T00:10:25;17.00;99.90
16736;DHT22;17990;49.548;9.730;2023-07-31T00:12:53;16.90;99.90
16736;DHT22;17990;49.548;9.730;2023-07-31T00:15:20;16.90;99.90
16736;DHT22;17990;49.548;9.730;2023-07-31T00:17:46;17.00;99.90
16736;DHT22;17990;49.548;9.730;2023-07-31T00:20:13;16.90;99.90
16736;DHT22;17990;49.548;9.730;2023-07-31T00:22:40;16.90;99.90
16736;DHT22;17990;49.548;9.730;2023-07-31T00:25:07;16.90;99.90
16736;DHT22;17990;49.548;9.730;2023-07-31T00:27:34;16.90;99.90
16736;DHT22;17990;49.548;9.730;2023-07-31T00:30:02;16.80;99.90
16736;DHT22;17990;49.548;9.730;2023-07-31T00:32:29;16.80;99.90
16736;DHT22;17990;49.548;9.730;2023-07-31T00:34:56;16.80;99.90
16736;DHT22;17990;49.548;9.730;2023-07-31T00:37:23;16.80;99.90
16736;DHT22;17990;49.548;9.730;2023-07-31T00:39:49;16.80;99.90
16736;DHT22;17990;49.548;9.730;2023-07-31T00:42:16;16.90;99.90
16736;DHT22;17990;49.548;9.730;2023-07-31T00:44:43;16.90;99.90
16736;DHT22;17990;49.548;9.730;2023-07-31T00:47:11;16.80;99.90
16736;DHT22;17990;49.548;9.730;2023-07-31T00:49:37;16.80;99.90
16736;DHT22;17990;49.548;9.730;2023-07-31T00:52:05;16.80;99.90
16736;DHT22;17990;49.548;9.730;2023-07-31T00:54:32;16.80;99.90
16736;DHT22;17990;49.548;9.730;2023-07-31T00:56:59;16.80;99.90
16736;DHT22;17990;49.548;9.730;2023-07-31T00:59:26;16.70;99.90
16736;DHT22;17990;49.548;9.730;2023-07-31T01:01:53;16.70;99.90
16736;DHT22;17990;49.548;9.730;2023-07-31T01:04:22;16.70;99.90
16736;DHT22;17990;49.548;9.730;2023-07-31T01:06:54;16.70;99.90
16736;DHT22;17990;49.548;9.730;2023-07-31T01:09:28;16.70;99.90
16736;DHT22;17990;49.548;9.730;2023-07-31T01:11:57;16.80;99.90
16736;DHT22;17990;49.548;9.730;2023-07-31T01:14:26;16.80;99.90
16736;DHT22;17990;49.548;9.730;2023-07-31T01:16:53;16.80;99.90
16736;DHT22;17990;49.548;9.730;2023-07-31T01:19:23;16.80;99.90
16736;DHT22;17990;49.548;9.730;2023-07-31T01:22:12;16.80;99.90
16736;DHT22;17990;49.548;9.730;2023-07-31T01:24:49;16.90;99.90
16736;DHT22;17990;49.548;9.730;2023-07-31T01:27:24;16.90;99.90
16736;DHT22;17990;49.548;9.730;2023-07-31T01:29:58;16.90;99.90
16736;DHT22;17990;49.548;9.730;2023-07-31T01:32:28;16.90;99.90
16736;DHT22;17990;49.548;9.730;2023-07-31T01:34:56;16.90;99.90
16736;DHT22;17990;49.548;9.730;2023-07-31T01:37:28;16.90;99.90
16736;DHT22;17990;49.548;9.730;2023-07-31T01:39:55;16.90;99.90
16736;DHT22;17990;49.548;9.730;2023-07-31T01:42:23;16.80;99.90
16736;DHT22;17990;49.548;9.730;2023-07-31T01:44:50;16.70;99.90
16736;DHT22;17990;49.548;9.730;2023-07-31T01:47:16;16.70;99.90
16736;DHT22;17990;49.548;9.730;2023-07-31T01:49:43;16.70;99.90
16736;DHT22;17990;49.548;9.730;2023-07-31T01:52:10;16.70;99.90
16736;DHT22;17990;49.548;9.730;2023-07-31T01:54:36;16.70;99.90
16736;DHT22;17990;49.548;9.730;2023-07-31T01:57:03;16.80;99.90
16736;DHT22;17990;49.548;9.730;2023-07-31T01:59:31;16.80;99.90
16736;DHT22;17990;49.548;9.730;2023-07-31T02:01:58;16.90;99.90
16736;DHT22;17990;49.548;9.730;2023-07-31T02:04:24;16.90;99.90
16736;DHT22;17990;49.548;9.730;2023-07-31T02:06:52;16.90;99.90
16736;DHT22;17990;49.548;9.730;2023-07-31T02:09:19;16.90;99.90
16736;DHT22;17990;49.548;9.730;2023-07-31T02:11:46;16.90;99.90
16736;DHT22;17990;49.548;9.730;2023-07-31T02:14:13;16.90;99.90
16736;DHT22;17990;49.548;9.730;2023-07-31T02:16:41;16.90;99.90
16736;DHT22;17990;49.548;9.730;2023-07-31T02:19:08;16.80;99.90
16736;DHT22;17990;49.548;9.730;2023-07-31T02:21:34;16.90;99.90
16736;DHT22;17990;49.548;9.730;2023-07-31T02:24:01;16.80;99.90
16736;DHT22;17990;49.548;9.730;2023-07-31T02:26:28;16.80;99.90
16736;DHT22;17990;49.548;9.730;2023-07-31T02:28:54;16.80;99.90
16736;DHT22;17990;49.548;9.730;2023-07-31T02:31:21;16.80;99.90
16736;DHT22;17990;49.548;9.730;2023-07-31T02:33:49;16.80;99.90
16736;DHT22;17990;49.548;9.730;2023-07-31T02:36:16;16.90;99.90
16736;DHT22;17990;49.548;9.730;2023-07-31T02:38:43;16.90;99.90
16736;DHT22;17990;49.548;9.730;2023-07-31T02:41:09;17.00;99.90
16736;DHT22;17990;49.548;9.730;2023-07-31T02:43:36;17.00;99.90
16736;DHT22;17990;49.548;9.730;2023-07-31T02:46:03;16.90;99.90
16736;DHT22;17990;49.548;9.730;2023-07-31T02:48:29;16.90;99.90
16736;DHT22;17990;49.548;9.730;2023-07-31T02:50:57;16.90;99.90
16736;DHT22;17990;49.548;9.730;2023-07-31T02:53:24;16.90;99.90
16736;DHT22;17990;49.548;9.730;2023-07-31T02:55:51;17.00;99.90
16736;DHT22;17990;49.548;9.730;2023-07-31T02:58:18;17.00;99.90
16736;DHT22;17990;49.548;9.730;2023-07-31T03:00:44;17.00;99.90
16736;DHT22;17990;49.548;9.730;2023-07-31T03:03:11;17.00;99.90
16736;DHT22;17990;49.548;9.730;2023-07-31T03:05:38;17.10;99.90
16736;DHT22;17990;49.548;9.730;2023-07-31T03:08:06;17.10;99.90
16736;DHT22;17990;49.548;9.730;2023-07-31T03:10:33;17.10;99.90
16736;DHT22;17990;49.548;9.730;2023-07-31T03:12:59;17.20;99.90
16736;DHT22;17990;49.548;9.730;2023-07-31T03:15:26;17.20;99.90
16736;DHT22;17990;49.548;9.730;2023-07-31T03:17:53;17.20;99.90
16736;DHT22;17990;49.548;9.730;2023-07-31T03:20:19;17.20;99.90
16736;DHT22;17990;49.548;9.730;2023-07-31T03:22:49;17.20;99.90
16736;DHT22;17990;49.548;9.730;2023-07-31T03:25:17;17.20;99.90
16736;DHT22;17990;49.548;9.730;2023-07-31T03:27:44;17.30;99.90
16736;DHT22;17990;49.548;9.730;2023-07-31T03:30:11;17.30;99.90
16736;DHT22;17990;49.548;9.730;2023-07-31T03:32:38;17.10;99.90
16736;DHT22;17990;49.548;9.730;2023-07-31T03:35:05;17.00;99.90
16736;DHT22;17990;49.548;9.730;2023-07-31T03:37:32;16.90;99.90
16736;DHT22;17990;49.548;9.730;2023-07-31T03:39:59;16.90;99.90
16736;DHT22;17990;49.548;9.730;2023-07-31T03:42:27;16.70;99.90
16736;DHT22;17990;49.548;9.730;2023-07-31T03:44:53;16.70;99.90
16736;DHT22;17990;49.548;9.730;2023-07-31T03:47:20;16.70;99.90
16736;DHT22;17990;49.548;9.730;2023-07-31T03:49:47;16.70;99.90
16736;DHT22;17990;49.548;9.730;2023-07-31T03:52:13;16.60;99.90
16736;DHT22;17990;49.548;9.730;2023-07-31T03:54:40;16.60;99.90
16736;DHT22;17990;49.548;9.730;2023-07-31T03:57:07;16.60;99.90
16736;DHT22;17990;49.548;9.730;2023-07-31T03:59:35;16.50;99.90
16736;DHT22;17990;49.548;9.730;2023-07-31T04:02:04;16.50;99.90
16736;DHT22;17990;49.548;9.730;2023-07-31T04:04:30;16.60;99.90
16736;DHT22;17990;49.548;9.730;2023-07-31T04:06:57;16.60;99.90
16736;DHT22;17990;49.548;9.730;2023-07-31T04:09:24;16.70;99.90
16736;DHT22;17990;49.548;9.730;2023-07-31T04:11:50;16.80;99.90
16736;DHT22;17990;49.548;9.730;2023-07-31T04:14:17;16.80;99.90
16736;DHT22;17990;49.548;9.730;2023-07-31T04:16:45;16.90;99.90
16736;DHT22;17990;49.548;9.730;2023-07-31T04:19:12;17.10;99.90
16736;DHT22;17990;49.548;9.730;2023-07-31T04:21:42;17.10;99.90
16736;DHT22;17990;49.548;9.730;2023-07-31T04:24:08;17.20;99.90
16736;DHT22;17990;49.548;9.730;2023-07-31T04:26:35;17.30;99.90
16736;DHT22;17990;49.548;9.730;2023-07-31T04:29:02;17.40;99.90
16736;DHT22;17990;49.548;9.730;2023-07-31T04:31:28;17.30;99.90
16736;DHT22;17990;49.548;9.730;2023-07-31T04:33:57;17.30;99.90
16736;DHT22;17990;49.548;9.730;2023-07-31T04:36:23;17.30;99.90
16736;DHT22;17990;49.548;9.730;2023-07-31T04:38:50;17.30;99.90
16736;DHT22;17990;49.548;9.730;2023-07-31T04:41:17;17.40;99.90
16736;DHT22;17990;49.548;9.730;2023-07-31T04:43:43;17.40;99.90
16736;DHT22;17990;49.548;9.730;2023-07-31T04:46:10;17.50;99.90
16736;DHT22;17990;49.548;9.730;2023-07-31T04:48:37;17.50;99.90
16736;DHT22;17990;49.548;9.730;2023-07-31T04:51:05;17.50;99.90
16736;DHT22;17990;49.548;9.730;2023-07-31T04:53:32;17.50;99.90
16736;DHT22;17990;49.548;9.730;2023-07-31T04:55:59;17.50;99.90
16736;DHT22;17990;49.548;9.730;2023-07-31T04:58:25;17.50;99.90
16736;DHT22;17990;49.548;9.730;2023-07-31T05:00:52;17.60;99.90
16736;DHT22;17990;49.548;9.730;2023-07-31T05:03:19;17.60;99.90
16736;DHT22;17990;49.548;9.730;2023-07-31T05:05:46;17.70;99.90
16736;DHT22;17990;49.548;9.730;2023-07-31T05:08:14;17.70;99.90
16736;DHT22;17990;49.548;9.730;2023-07-31T05:10:43;17.70;99.90
16736;DHT22;17990;49.548;9.730;2023-07-31T05:13:09;17.70;99.90
16736;DHT22;17990;49.548;9.730;2023-07-31T05:15:36;17.80;99.90
16736;DHT22;17990;49.548;9.730;2023-07-31T05:18:03;17.90;99.90
16736;DHT22;17990;49.548;9.730;2023-07-31T05:20:29;18.00;99.90
16736;DHT22;17990;49.548;9.730;2023-07-31T05:22:56;18.20;99.90
16736;DHT22;17990;49.548;9.730;2023-07-31T05:25:24;18.40;99.90
16736;DHT22;17990;49.548;9.730;2023-07-31T05:27:51;18.50;99.90
16736;DHT22;17990;49.548;9.730;2023-07-31T05:30:18;18.60;99.90
16736;DHT22;17990;49.548;9.730;2023-07-31T05:32:45;18.70;99.90
16736;DHT22;17990;49.548;9.730;2023-07-31T05:35:11;18.90;99.90
16736;DHT22;17990;49.548;9.730;2023-07-31T05:37:38;19.20;99.90
16736;DHT22;17990;49.548;9.730;2023-07-31T05:40:06;19.40;99.90
16736;DHT22;17990;49.548;9.730;2023-07-31T05:42:34;19.70;99.90
16736;DHT22;17990;49.548;9.730;2023-07-31T05:45:04;20.10;99.90
16736;DHT22;17990;49.548;9.730;2023-07-31T05:47:31;20.20;99.90
16736;DHT22;17990;49.548;9.730;2023-07-31T05:49:58;20.10;99.90
16736;DHT22;17990;49.548;9.730;2023-07-31T05:52:24;20.20;99.90
16736;DHT22;17990;49.548;9.730;2023-07-31T05:54:51;20.60;99.90
16736;DHT22;17990;49.548;9.730;2023-07-31T05:57:18;21.50;99.90
16736;DHT22;17990;49.548;9.730;2023-07-31T05:59:46;22.30;99.90
16736;DHT22;17990;49.548;9.730;2023-07-31T06:02:13;22.10;99.90
16736;DHT22;17990;49.548;9.730;2023-07-31T06:04:39;21.80;99.90
16736;DHT22;17990;49.548;9.730;2023-07-31T06:07:06;21.50;99.90
16736;DHT22;17990;49.548;9.730;2023-07-31T06:09:33;21.10;99.90
16736;DHT22;17990;49.548;9.730;2023-07-31T06:11:59;20.90;99.90
16736;DHT22;17990;49.548;9.730;2023-07-31T06:14:26;20.80;99.90
16736;DHT22;17990;49.548;9.730;2023-07-31T06:16:54;20.90;99.90
16736;DHT22;17990;49.548;9.730;2023-07-31T06:19:21;20.80;99.90
16736;DHT22;17990;49.548;9.730;2023-07-31T06:21:48;20.80;99.90
16736;DHT22;17990;49.548;9.730;2023-07-31T06:24:14;20.70;99.90
16736;DHT22;17990;49.548;9.730;2023-07-31T06:26:44;20.70;99.90
16736;DHT22;17990;49.548;9.730;2023-07-31T06:29:11;20.80;99.90
16736;DHT22;17990;49.548;9.730;2023-07-31T06:31:38;20.90;99.90
16736;DHT22;17990;49.548;9.730;2023-07-31T06:34:06;21.10;99.90
16736;DHT22;17990;49.548;9.730;2023-07-31T06:36:32;21.10;99.90
16736;DHT22;17990;49.548;9.730;2023-07-31T06:38:59;21.10;99.90
16736;DHT22;17990;49.548;9.730;2023-07-31T06:41:26;21.20;99.90
16736;DHT22;17990;49.548;9.730;2023-07-31T06:43:52;21.30;99.90
16736;DHT22;17990;49.548;9.730;2023-07-31T06:46:19;21.20;99.90
16736;DHT22;17990;49.548;9.730;2023-07-31T06:48:46;21.10;99.90
16736;DHT22;17990;49.548;9.730;2023-07-31T06:51:14;20.90;99.90
16736;DHT22;17990;49.548;9.730;2023-07-31T06:53:40;20.70;99.90
16736;DHT22;17990;49.548;9.730;2023-07-31T06:56:10;20.50;99.90
16736;DHT22;17990;49.548;9.730;2023-07-31T06:58:37;20.70;99.90
16736;DHT22;17990;49.548;9.730;2023-07-31T07:01:03;20.80;99.90
16736;DHT22;17990;49.548;9.730;2023-07-31T07:03:30;20.90;99.90
16736;DHT22;17990;49.548;9.730;2023-07-31T07:05:57;21.20;99.90
16736;DHT22;17990;49.548;9.730;2023-07-31T07:08:26;21.30;99.90
16736;DHT22;17990;49.548;9.730;2023-07-31T07:10:52;21.40;99.90
16736;DHT22;17990;49.548;9.730;2023-07-31T07:13:19;21.30;99.90
16736;DHT22;17990;49.548;9.730;2023-07-31T07:15:48;21.30;99.90
16736;DHT22;17990;49.548;9.730;2023-07-31T07:18:15;21.30;99.90
16736;DHT22;17990;49.548;9.730;2023-07-31T07:20:46;21.50;99.90
16736;DHT22;17990;49.548;9.730;2023-07-31T07:23:13;22.60;99.90
16736;DHT22;17990;49.548;9.730;2023-07-31T07:25:41;24.80;99.90
16736;DHT22;17990;49.548;9.730;2023-07-31T07:28:08;25.20;99.90
16736;DHT22;17990;49.548;9.730;2023-07-31T07:30:35;24.60;99.90
16736;DHT22;17990;49.548;9.730;2023-07-31T07:33:01;24.20;99.90
16736;DHT22;17990;49.548;9.730;2023-07-31T07:35:28;23.60;99.90
16736;DHT22;17990;49.548;9.730;2023-07-31T07:37:55;23.10;99.90
16736;DHT22;17990;49.548;9.730;2023-07-31T07:40:22;22.60;99.90
16736;DHT22;17990;49.548;9.730;2023-07-31T07:42:50;22.50;99.90
16736;DHT22;17990;49.548;9.730;2023-07-31T07:45:17;22.30;99.90
16736;DHT22;17990;49.548;9.730;2023-07-31T07:47:43;22.60;99.90
16736;DHT22;17990;49.548;9.730;2023-07-31T07:50:10;22.90;99.90
16736;DHT22;17990;49.548;9.730;2023-07-31T07:52:37;23.10;99.90
16736;DHT22;17990;49.548;9.730;2023-07-31T07:55:04;23.10;99.90
16736;DHT22;17990;49.548;9.730;2023-07-31T07:57:31;22.90;99.90
16736;DHT22;17990;49.548;9.730;2023-07-31T07:59:59;23.30;99.90
16736;DHT22;17990;49.548;9.730;2023-07-31T08:02:26;23.50;99.90
16736;DHT22;17990;49.548;9.730;2023-07-31T08:04:53;23.60;99.90
16736;DHT22;17990;49.548;9.730;2023-07-31T08:07:19;23.70;99.90
16736;DHT22;17990;49.548;9.730;2023-07-31T08:09:46;23.40;99.90
16736;DHT22;17990;49.548;9.730;2023-07-31T08:12:13;23.30;99.90
16736;DHT22;17990;49.548;9.730;2023-07-31T08:14:39;24.70;99.90
16736;DHT22;17990;49.548;9.730;2023-07-31T08:17:07;26.60;99.90
16736;DHT22;17990;49.548;9.730;2023-07-31T08:19:34;28.60;97.20
16736;DHT22;17990;49.548;9.730;2023-07-31T08:22:01;30.40;93.30
16736;DHT22;17990;49.548;9.730;2023-07-31T08:24:28;30.10;92.40
16736;DHT22;17990;49.548;9.730;2023-07-31T08:26:54;30.20;92.20
16736;DHT22;17990;49.548;9.730;2023-07-31T08:29:21;31.30;90.00
16736;DHT22;17990;49.548;9.730;2023-07-31T08:31:48;30.80;88.80
16736;DHT22;17990;49.548;9.730;2023-07-31T08:34:16;29.60;90.30
16736;DHT22;17990;49.548;9.730;2023-07-31T08:36:42;28.30;91.30
16736;DHT22;17990;49.548;9.730;2023-07-31T08:39:10;27.40;92.80
16736;DHT22;17990;49.548;9.730;2023-07-31T08:41:38;26.90;93.30
16736;DHT22;17990;49.548;9.730;2023-07-31T08:44:05;26.30;93.40
16736;DHT22;17990;49.548;9.730;2023-07-31T08:46:33;25.90;94.40
16736;DHT22;17990;49.548;9.730;2023-07-31T08:49:00;25.50;95.40
16736;DHT22;17990;49.548;9.730;2023-07-31T08:51:30;24.90;96.30
16736;DHT22;17990;49.548;9.730;2023-07-31T08:53:56;24.70;96.50
16736;DHT22;17990;49.548;9.730;2023-07-31T08:56:24;24.80;96.40
16736;DHT22;17990;49.548;9.730;2023-07-31T08:58:52;24.90;96.40
16736;DHT22;17990;49.548;9.730;2023-07-31T09:01:20;24.80;96.40
16736;DHT22;17990;49.548;9.730;2023-07-31T09:03:47;25.00;96.30
16736;DHT22;17990;49.548;9.730;2023-07-31T09:06:17;25.10;96.00
16736;DHT22;17990;49.548;9.730;2023-07-31T09:08:46;24.90;96.10
16736;DHT22;17990;49.548;9.730;2023-07-31T09:11:13;24.80;96.20
16736;DHT22;17990;49.548;9.730;2023-07-31T09:13:40;24.60;96.40
16736;DHT22;17990;49.548;9.730;2023-07-31T09:16:08;24.60;96.50
16736;DHT22;17990;49.548;9.730;2023-07-31T09:18:53;24.50;96.80
16736;DHT22;17990;49.548;9.730;2023-07-31T09:21:19;25.10;96.50
16736;DHT22;17990;49.548;9.730;2023-07-31T09:23:48;25.80;95.90
16736;DHT22;17990;49.548;9.730;2023-07-31T09:26:29;26.00;95.10
16736;DHT22;17990;49.548;9.730;2023-07-31T09:28:56;26.40;94.90
16736;DHT22;17990;49.548;9.730;2023-07-31T09:31:38;26.40;94.70
16736;DHT22;17990;49.548;9.730;2023-07-31T09:34:05;26.30;94.60
16736;DHT22;17990;49.548;9.730;2023-07-31T09:36:32;26.00;94.50
16736;DHT22;17990;49.548;9.730;2023-07-31T09:39:03;25.90;94.80
16736;DHT22;17990;49.548;9.730;2023-07-31T09:41:30;25.90;95.20
16736;DHT22;17990;49.548;9.730;2023-07-31T09:43:57;26.00;94.70
16736;DHT22;17990;49.548;9.730;2023-07-31T09:46:27;26.00;95.00
16736;DHT22;17990;49.548;9.730;2023-07-31T09:49:06;25.60;95.40
16736;DHT22;17990;49.548;9.730;2023-07-31T09:51:34;25.50;95.60
16736;DHT22;17990;49.548;9.730;2023-07-31T09:54:09;25.20;95.60
16736;DHT22;17990;49.548;9.730;2023-07-31T09:56:41;25.20;95.80
16736;DHT22;17990;49.548;9.730;2023-07-31T09:59:11;25.20;95.90
16736;DHT22;17990;49.548;9.730;2023-07-31T10:01:38;25.20;95.80
16736;DHT22;17990;49.548;9.730;2023-07-31T10:04:07;25.00;96.20
16736;DHT22;17990;49.548;9.730;2023-07-31T10:06:35;25.10;96.40
16736;DHT22;17990;49.548;9.730;2023-07-31T10:09:03;25.30;96.40
16736;DHT22;17990;49.548;9.730;2023-07-31T10:11:35;25.40;96.00
16736;DHT22;17990;49.548;9.730;2023-07-31T10:14:03;25.40;96.30
16736;DHT22;17990;49.548;9.730;2023-07-31T10:16:31;25.40;96.30
16736;DHT22;17990;49.548;9.730;2023-07-31T10:18:59;25.50;96.60
16736;DHT22;17990;49.548;9.730;2023-07-31T10:21:26;25.30;96.90
16736;DHT22;17990;49.548;9.730;2023-07-31T10:23:53;25.20;96.40
16736;DHT22;17990;49.548;9.730;2023-07-31T10:26:22;25.40;96.70
16736;DHT22;17990;49.548;9.730;2023-07-31T10:28:52;25.70;95.80
16736;DHT22;17990;49.548;9.730;2023-07-31T10:31:21;25.70;95.60
16736;DHT22;17990;49.548;9.730;2023-07-31T10:33:48;25.30;95.90
16736;DHT22;17990;49.548;9.730;2023-07-31T10:36:18;24.90;95.80
16736;DHT22;17990;49.548;9.730;2023-07-31T10:38:44;24.60;96.50
16736;DHT22;17990;49.548;9.730;2023-07-31T10:41:11;25.00;95.80
16736;DHT22;17990;49.548;9.730;2023-07-31T10:43:38;25.60;95.30
16736;DHT22;17990;49.548;9.730;2023-07-31T10:46:12;26.10;94.60
16736;DHT22;17990;49.548;9.730;2023-07-31T10:48:40;26.30;94.30
16736;DHT22;17990;49.548;9.730;2023-07-31T10:51:09;26.30;93.60
16736;DHT22;17990;49.548;9.730;2023-07-31T10:53:38;26.70;93.50
16736;DHT22;17990;49.548;9.730;2023-07-31T10:56:08;26.70;93.40
16736;DHT22;17990;49.548;9.730;2023-07-31T10:58:36;26.80;93.40
16736;DHT22;17990;49.548;9.730;2023-07-31T11:01:04;26.40;93.50
16736;DHT22;17990;49.548;9.730;2023-07-31T11:03:50;26.30;94.10
16736;DHT22;17990;49.548;9.730;2023-07-31T11:06:18;26.60;93.90
16736;DHT22;17990;49.548;9.730;2023-07-31T11:08:46;26.80;93.50
16736;DHT22;17990;49.548;9.730;2023-07-31T11:11:14;26.70;93.90
16736;DHT22;17990;49.548;9.730;2023-07-31T11:13:44;26.10;93.30
16736;DHT22;17990;49.548;9.730;2023-07-31T11:16:12;26.00;93.50
16736;DHT22;17990;49.548;9.730;2023-07-31T11:18:40;26.00;93.50
16736;DHT22;17990;49.548;9.730;2023-07-31T11:21:09;25.90;93.70
16736;DHT22;17990;49.548;9.730;2023-07-31T11:23:38;25.90;93.60
16736;DHT22;17990;49.548;9.730;2023-07-31T11:26:05;25.90;93.50
16736;DHT22;17990;49.548;9.730;2023-07-31T11:28:34;26.00;93.30
16736;DHT22;17990;49.548;9.730;2023-07-31T11:31:01;26.50;93.10
16736;DHT22;17990;49.548;9.730;2023-07-31T11:33:28;26.70;92.80
16736;DHT22;17990;49.548;9.730;2023-07-31T11:35:55;26.60;92.90
16736;DHT22;17990;49.548;9.730;2023-07-31T11:38:24;26.50;92.50
16736;DHT22;17990;49.548;9.730;2023-07-31T11:40:51;26.70;92.80
16736;DHT22;17990;49.548;9.730;2023-07-31T11:43:19;26.90;92.70
16736;DHT22;17990;49.548;9.730;2023-07-31T11:45:47;27.00;92.30
16736;DHT22;17990;49.548;9.730;2023-07-31T11:48:22;26.80;92.20
16736;DHT22;17990;49.548;9.730;2023-07-31T11:50:50;26.70;92.80
16736;DHT22;17990;49.548;9.730;2023-07-31T11:53:20;26.70;92.50
16736;DHT22;17990;49.548;9.730;2023-07-31T11:55:49;26.40;92.70
16736;DHT22;17990;49.548;9.730;2023-07-31T11:58:16;26.10;92.90
16736;DHT22;17990;49.548;9.730;2023-07-31T12:00:45;26.30;93.00
16736;DHT22;17990;49.548;9.730;2023-07-31T12:03:12;26.60;92.80
16736;DHT22;17990;49.548;9.730;2023-07-31T12:05:39;26.70;92.50
16736;DHT22;17990;49.548;9.730;2023-07-31T12:08:10;26.70;92.50
16736;DHT22;17990;49.548;9.730;2023-07-31T12:10:37;26.30;92.60
16736;DHT22;17990;49.548;9.730;2023-07-31T12:13:09;26.10;92.80
16736;DHT22;17990;49.548;9.730;2023-07-31T12:15:40;26.10;93.10
16736;DHT22;17990;49.548;9.730;2023-07-31T12:18:08;26.00;93.20
16736;DHT22;17990;49.548;9.730;2023-07-31T12:20:39;25.90;93.00
16736;DHT22;17990;49.548;9.730;2023-07-31T12:23:07;25.80;92.90
16736;DHT22;17990;49.548;9.730;2023-07-31T12:25:39;26.00;93.20
16736;DHT22;17990;49.548;9.730;2023-07-31T12:28:08;26.20;93.10
16736;DHT22;17990;49.548;9.730;2023-07-31T12:30:38;26.50;92.70
16736;DHT22;17990;49.548;9.730;2023-07-31T12:33:06;26.80;92.30
16736;DHT22;17990;49.548;9.730;2023-07-31T12:35:37;27.00;91.90
16736;DHT22;17990;49.548;9.730;2023-07-31T12:38:04;26.90;91.70
16736;DHT22;17990;49.548;9.730;2023-07-31T12:40:31;26.90;92.20
16736;DHT22;17990;49.548;9.730;2023-07-31T12:42:57;27.20;91.80
16736;DHT22;17990;49.548;9.730;2023-07-31T12:45:26;27.20;91.70
16736;DHT22;17990;49.548;9.730;2023-07-31T12:47:52;26.80;91.90
16736;DHT22;17990;49.548;9.730;2023-07-31T12:50:19;26.70;92.30
16736;DHT22;17990;49.548;9.730;2023-07-31T12:52:46;26.70;92.40
16736;DHT22;17990;49.548;9.730;2023-07-31T12:55:13;26.80;92.00
16736;DHT22;17990;49.548;9.730;2023-07-31T12:57:40;26.80;92.40
16736;DHT22;17990;49.548;9.730;2023-07-31T13:00:08;27.10;92.30
16736;DHT22;17990;49.548;9.730;2023-07-31T13:02:36;27.10;91.80
16736;DHT22;17990;49.548;9.730;2023-07-31T13:05:03;26.80;91.70
16736;DHT22;17990;49.548;9.730;2023-07-31T13:07:30;27.00;91.90
16736;DHT22;17990;49.548;9.730;2023-07-31T13:09:57;27.00;91.50
16736;DHT22;17990;49.548;9.730;2023-07-31T13:12:24;26.70;91.70
16736;DHT22;17990;49.548;9.730;2023-07-31T13:14:51;26.80;92.00
16736;DHT22;17990;49.548;9.730;2023-07-31T13:17:18;26.90;91.70
16736;DHT22;17990;49.548;9.730;2023-07-31T13:19:46;27.00;91.90
16736;DHT22;17990;49.548;9.730;2023-07-31T13:22:12;27.10;91.80
16736;DHT22;17990;49.548;9.730;2023-07-31T13:24:39;27.10;91.70
16736;DHT22;17990;49.548;9.730;2023-07-31T13:27:06;27.20;91.80
16736;DHT22;17990;49.548;9.730;2023-07-31T13:29:33;27.10;91.90
16736;DHT22;17990;49.548;9.730;2023-07-31T13:31:59;27.10;92.00
16736;DHT22;17990;49.548;9.730;2023-07-31T13:34:26;27.00;92.00
16736;DHT22;17990;49.548;9.730;2023-07-31T13:36:55;27.00;91.90
16736;DHT22;17990;49.548;9.730;2023-07-31T13:39:22;26.80;91.60
16736;DHT22;17990;49.548;9.730;2023-07-31T13:41:48;26.50;92.10
16736;DHT22;17990;49.548;9.730;2023-07-31T13:44:15;26.20;92.30
16736;DHT22;17990;49.548;9.730;2023-07-31T13:46:42;26.30;92.20
16736;DHT22;17990;49.548;9.730;2023-07-31T13:49:08;26.30;92.20
16736;DHT22;17990;49.548;9.730;2023-07-31T13:51:35;26.40;92.20
16736;DHT22;17990;49.548;9.730;2023-07-31T13:54:06;26.40;92.50
16736;DHT22;17990;49.548;9.730;2023-07-31T13:56:33;26.50;92.40
16736;DHT22;17990;49.548;9.730;2023-07-31T13:59:00;26.50;92.50
16736;DHT22;17990;49.548;9.730;2023-07-31T14:01:27;26.50;92.60
16736;DHT22;17990;49.548;9.730;2023-07-31T14:03:54;26.20;92.80
16736;DHT22;17990;49.548;9.730;2023-07-31T14:06:21;26.40;93.00
16736;DHT22;17990;49.548;9.730;2023-07-31T14:08:47;26.60;92.40
16736;DHT22;17990;49.548;9.730;2023-07-31T14:11:15;26.90;92.60
16736;DHT22;17990;49.548;9.730;2023-07-31T14:13:42;27.00;92.20
16736;DHT22;17990;49.548;9.730;2023-07-31T14:16:09;27.00;92.30
16736;DHT22;17990;49.548;9.730;2023-07-31T14:18:36;27.20;92.10
16736;DHT22;17990;49.548;9.730;2023-07-31T14:21:03;27.20;92.00
16736;DHT22;17990;49.548;9.730;2023-07-31T14:23:29;27.20;92.20
16736;DHT22;17990;49.548;9.730;2023-07-31T14:25:56;27.10;92.00
16736;DHT22;17990;49.548;9.730;2023-07-31T14:28:24;27.00;92.10
16736;DHT22;17990;49.548;9.730;2023-07-31T14:30:51;26.80;92.40
16736;DHT22;17990;49.548;9.730;2023-07-31T14:33:17;26.70;92.50
16736;DHT22;17990;49.548;9.730;2023-07-31T14:35:44;26.70;92.30
16736;DHT22;17990;49.548;9.730;2023-07-31T14:38:11;26.40;92.50
16736;DHT22;17990;49.548;9.730;2023-07-31T14:40:38;26.50;92.70
16736;DHT22;17990;49.548;9.730;2023-07-31T14:43:04;26.70;92.80
16736;DHT22;17990;49.548;9.730;2023-07-31T14:45:33;27.00;92.60
16736;DHT22;17990;49.548;9.730;2023-07-31T14:47:59;26.90;92.40
16736;DHT22;17990;49.548;9.730;2023-07-31T14:50:26;26.70;92.60
16736;DHT22;17990;49.548;9.730;2023-07-31T14:52:53;26.20;92.90
16736;DHT22;17990;49.548;9.730;2023-07-31T14:55:20;26.00;93.40
16736;DHT22;17990;49.548;9.730;2023-07-31T14:57:47;25.90;93.50
16736;DHT22;17990;49.548;9.730;2023-07-31T15:00:14;25.90;93.70
16736;DHT22;17990;49.548;9.730;2023-07-31T15:02:42;25.70;93.70
16736;DHT22;17990;49.548;9.730;2023-07-31T15:05:09;25.60;93.90
16736;DHT22;17990;49.548;9.730;2023-07-31T15:07:36;25.70;94.00
16736;DHT22;17990;49.548;9.730;2023-07-31T15:10:03;25.60;94.40
16736;DHT22;17990;49.548;9.730;2023-07-31T15:12:31;25.60;94.20
16736;DHT22;17990;49.548;9.730;2023-07-31T15:14:58;25.60;94.60
16736;DHT22;17990;49.548;9.730;2023-07-31T15:17:24;25.60;94.50
16736;DHT22;17990;49.548;9.730;2023-07-31T15:19:53;25.70;94.20
16736;DHT22;17990;49.548;9.730;2023-07-31T15:22:20;25.70;94.10
16736;DHT22;17990;49.548;9.730;2023-07-31T15:24:46;25.80;94.40
16736;DHT22;17990;49.548;9.730;2023-07-31T15:27:14;25.70;94.60
16736;DHT22;17990;49.548;9.730;2023-07-31T15:29:41;25.80;94.70
16736;DHT22;17990;49.548;9.730;2023-07-31T15:32:08;25.70;94.70